sensor_id;sensor_type;location;lat;lon;timestamp;pressure;altitude;pressure_sealevel;temperature;humidity
6393;BME280;3229;42.674;23.282;2023-03-22T00:01:58;94292.63;;;14.61;61.79
6393;BME280;3229;42.674;23.282;2023-03-22T00:04:25;94291.66;;;14.62;61.73
6393;BME280;3229;42.674;23.282;2023-03-22T00:06:53;94287.81;;;14.58;61.85
6393;BME280;3229;42.674;23.282;2023-03-22T00:09:20;94289.25;;;14.60;61.77
6393;BME280;3229;42.674;23.282;2023-03-22T00:11:47;94288.47;;;14.60;61.85
6393;BME280;3229;42.674;23.282;2023-03-22T00:14:15;94287.63;;;14.59;61.79
6393;BME280;3229;42.674;23.282;2023-03-22T00:16:42;94283.66;;;14.57;61.88
6393;BME280;3229;42.674;23.282;2023-03-22T00:19:10;94285.44;;;14.56;61.88
6393;BME280;3229;42.674;23.282;2023-03-22T00:21:37;94291.56;;;14.55;61.91
6393;BME280;3229;42.674;23.282;2023-03-22T00:24:06;94288.16;;;14.54;62.07
6393;BME280;3229;42.674;23.282;2023-03-22T00:26:33;94285.78;;;14.53;61.81
6393;BME280;3229;42.674;23.282;2023-03-22T00:29:00;94285.78;;;14.53;61.81
6393;BME280;3229;42.674;23.282;2023-03-22T00:31:26;94281.59;;;14.52;61.94
6393;BME280;3229;42.674;23.282;2023-03-22T00:33:53;94280.00;;;14.51;62.04
6393;BME280;3229;42.674;23.282;2023-03-22T00:36:20;94275.81;;;14.50;61.80
6393;BME280;3229;42.674;23.282;2023-03-22T00:38:47;94272.13;;;14.44;62.30
6393;BME280;3229;42.674;23.282;2023-03-22T00:41:16;94274.38;;;14.47;62.24
6393;BME280;3229;42.674;23.282;2023-03-22T00:43:44;94275.31;;;14.46;62.00
6393;BME280;3229;42.674;23.282;2023-03-22T00:46:13;94278.06;;;14.45;62.05
6393;BME280;3229;42.674;23.282;2023-03-22T00:48:40;94268.59;;;14.45;62.19
6393;BME280;3229;42.674;23.282;2023-03-22T00:51:07;94267.00;;;14.44;61.94
6393;BME280;3229;42.674;23.282;2023-03-22T00:53:34;94273.91;;;14.44;62.39
6393;BME280;3229;42.674;23.282;2023-03-22T00:56:02;94269.75;;;14.43;62.24
6393;BME280;3229;42.674;23.282;2023-03-22T00:58:30;94268.13;;;14.42;62.39
6393;BME280;3229;42.674;23.282;2023-03-22T01:00:57;94270.69;;;14.42;62.25
6393;BME280;3229;42.674;23.282;2023-03-22T01:03:24;94269.09;;;14.41;62.28
6393;BME280;3229;42.674;23.282;2023-03-22T01:05:52;94274.41;;;14.39;62.24
6393;BME280;3229;42.674;23.282;2023-03-22T01:08:21;94262.53;;;14.38;62.50
6393;BME280;3229;42.674;23.282;2023-03-22T01:10:48;94257.72;;;14.35;62.60
6393;BME280;3229;42.674;23.282;2023-03-22T01:13:15;94265.13;;;14.38;62.58
6393;BME280;3229;42.674;23.282;2023-03-22T01:15:43;94264.47;;;14.36;62.61
6393;BME280;3229;42.674;23.282;2023-03-22T01:18:12;94260.13;;;14.37;62.60
6393;BME280;3229;42.674;23.282;2023-03-22T01:20:39;94259.31;;;14.36;62.52
6393;BME280;3229;42.674;23.282;2023-03-22T01:23:05;94255.94;;;14.36;62.54
6393;BME280;3229;42.674;23.282;2023-03-22T01:25:32;94259.66;;;14.33;62.57
6393;BME280;3229;42.674;23.282;2023-03-22T01:27:59;94249.72;;;14.30;62.64
6393;BME280;3229;42.674;23.282;2023-03-22T01:30:27;94254.34;;;14.35;62.68
6393;BME280;3229;42.674;23.282;2023-03-22T01:32:55;94250.34;;;14.32;62.75
6393;BME280;3229;42.674;23.282;2023-03-22T01:35:22;94253.72;;;14.32;62.63
6393;BME280;3229;42.674;23.282;2023-03-22T01:37:49;94242.81;;;14.30;62.82
6393;BME280;3229;42.674;23.282;2023-03-22T01:40:16;94242.16;;;14.28;63.01
6393;BME280;3229;42.674;23.282;2023-03-22T01:42:43;94248.94;;;14.29;62.97
6393;BME280;3229;42.674;23.282;2023-03-22T01:45:38;94248.09;;;14.29;62.91
6393;BME280;3229;42.674;23.282;2023-03-22T01:48:11;94239.78;;;14.27;62.91
6393;BME280;3229;42.674;23.282;2023-03-22T01:50:41;94246.69;;;14.26;62.87
6393;BME280;3229;42.674;23.282;2023-03-22T01:53:11;94238.97;;;14.26;62.96
6393;BME280;3229;42.674;23.282;2023-03-22T01:55:40;94243.31;;;14.26;62.89
6393;BME280;3229;42.674;23.282;2023-03-22T01:58:07;94239.16;;;14.25;62.84
6393;BME280;3229;42.674;23.282;2023-03-22T02:00:34;94244.44;;;14.23;63.06
6393;BME280;3229;42.674;23.282;2023-03-22T02:03:02;94241.41;;;14.20;62.83
6393;BME280;3229;42.674;23.282;2023-03-22T02:05:31;94247.81;;;14.24;63.18
6393;BME280;3229;42.674;23.282;2023-03-22T02:08:00;94236.91;;;14.22;62.95
6393;BME280;3229;42.674;23.282;2023-03-22T02:10:28;94237.91;;;14.21;63.24
6393;BME280;3229;42.674;23.282;2023-03-22T02:13:17;94241.28;;;14.21;62.93
6393;BME280;3229;42.674;23.282;2023-03-22T02:15:49;94232.63;;;14.14;63.04
6393;BME280;3229;42.674;23.282;2023-03-22T02:18:35;94241.59;;;14.18;63.01
6393;BME280;3229;42.674;23.282;2023-03-22T02:21:54;94221.13;;;14.02;63.18
6393;BME280;3229;42.674;23.282;2023-03-22T02:24:56;94239.38;;;14.15;63.28
6393;BME280;3229;42.674;23.282;2023-03-22T02:27:58;94241.47;;;14.12;63.31
6393;BME280;3229;42.674;23.282;2023-03-22T02:30:54;94246.78;;;14.10;63.53
6393;BME280;3229;42.674;23.282;2023-03-22T02:36:35;94248.75;;;14.08;63.50
6393;BME280;3229;42.674;23.282;2023-03-22T02:39:13;94248.09;;;14.06;63.29
6393;BME280;3229;42.674;23.282;2023-03-22T02:41:55;94253.25;;;14.06;63.67
6393;BME280;3229;42.674;23.282;2023-03-22T02:44:36;94257.59;;;14.05;63.40
6393;BME280;3229;42.674;23.282;2023-03-22T02:47:10;94265.28;;;14.05;63.12
6393;BME280;3229;42.674;23.282;2023-03-22T02:49:45;94256.97;;;14.03;63.63
6393;BME280;3229;42.674;23.282;2023-03-22T02:52:16;94262.91;;;14.04;63.42
6393;BME280;3229;42.674;23.282;2023-03-22T02:54:50;94252.94;;;14.01;63.57
6393;BME280;3229;42.674;23.282;2023-03-22T02:57:23;94265.00;;;14.00;63.27
6393;BME280;3229;42.674;23.282;2023-03-22T02:59:52;94264.69;;;14.03;63.33
6393;BME280;3229;42.674;23.282;2023-03-22T03:02:21;94259.53;;;14.03;63.47
6393;BME280;3229;42.674;23.282;2023-03-22T03:04:49;94259.69;;;14.02;63.49
6393;BME280;3229;42.674;23.282;2023-03-22T03:07:20;94264.69;;;14.03;63.67
6393;BME280;3229;42.674;23.282;2023-03-22T03:09:50;94262.91;;;14.04;63.68
6393;BME280;3229;42.674;23.282;2023-03-22T03:12:20;94255.34;;;14.02;63.45
6393;BME280;3229;42.674;23.282;2023-03-22T03:14:49;94269.00;;;14.03;63.55
6393;BME280;3229;42.674;23.282;2023-03-22T03:17:33;94263.06;;;14.02;63.55
6393;BME280;3229;42.674;23.282;2023-03-22T03:20:17;94261.47;;;14.01;63.55
6393;BME280;3229;42.674;23.282;2023-03-22T03:22:58;94264.03;;;14.01;63.64
6393;BME280;3229;42.674;23.282;2023-03-22T03:25:33;94263.25;;;14.01;63.67
6393;BME280;3229;42.674;23.282;2023-03-22T03:28:11;94265.00;;;14.00;63.76
6393;BME280;3229;42.674;23.282;2023-03-22T03:30:46;94269.19;;;14.01;63.69
6393;BME280;3229;42.674;23.282;2023-03-22T03:33:17;94271.75;;;14.01;63.71
6393;BME280;3229;42.674;23.282;2023-03-22T03:35:48;94272.53;;;14.02;63.78
6393;BME280;3229;42.674;23.282;2023-03-22T03:38:21;94270.16;;;14.00;63.86
6393;BME280;3229;42.674;23.282;2023-03-22T03:40:54;94271.28;;;13.98;63.82
6393;BME280;3229;42.674;23.282;2023-03-22T03:43:23;94272.72;;;14.00;63.82
6393;BME280;3229;42.674;23.282;2023-03-22T03:45:52;94269.19;;;14.01;63.87
6393;BME280;3229;42.674;23.282;2023-03-22T03:48:23;94276.88;;;14.01;63.82
6393;BME280;3229;42.674;23.282;2023-03-22T03:50:53;94286.38;;;14.01;63.90
6393;BME280;3229;42.674;23.282;2023-03-22T03:53:21;94286.38;;;14.01;63.75
6393;BME280;3229;42.674;23.282;2023-03-22T03:55:49;94279.63;;;14.00;63.90
6393;BME280;3229;42.674;23.282;2023-03-22T03:58:17;94279.47;;;14.01;63.65
6393;BME280;3229;42.674;23.282;2023-03-22T04:00:44;94285.56;;;14.00;63.84
6393;BME280;3229;42.674;23.282;2023-03-22T04:03:12;94275.94;;;13.94;63.99
6393;BME280;3229;42.674;23.282;2023-03-22T04:05:39;94281.56;;;13.98;64.00
6393;BME280;3229;42.674;23.282;2023-03-22T04:08:06;94287.50;;;13.98;64.07
6393;BME280;3229;42.674;23.282;2023-03-22T04:10:34;94296.19;;;13.97;63.91
6393;BME280;3229;42.674;23.282;2023-03-22T04:13:00;94280.47;;;13.92;63.80
6393;BME280;3229;42.674;23.282;2023-03-22T04:15:29;94295.41;;;13.97;63.79
6393;BME280;3229;42.674;23.282;2023-03-22T04:17:57;94290.56;;;13.94;63.81
6393;BME280;3229;42.674;23.282;2023-03-22T04:20:24;94287.22;;;13.93;64.05
6393;BME280;3229;42.674;23.282;2023-03-22T04:22:51;94295.72;;;13.94;64.11
6393;BME280;3229;42.674;23.282;2023-03-22T04:25:18;94288.66;;;13.96;64.02
6393;BME280;3229;42.674;23.282;2023-03-22T04:27:47;94291.38;;;13.94;64.05
6393;BME280;3229;42.674;23.282;2023-03-22T04:30:16;94295.72;;;13.94;64.18
6393;BME280;3229;42.674;23.282;2023-03-22T04:32:45;94286.75;;;13.90;63.79
6393;BME280;3229;42.674;23.282;2023-03-22T04:35:16;94293.66;;;13.89;64.05
6393;BME280;3229;42.674;23.282;2023-03-22T04:37:42;94286.91;;;13.88;63.91
6393;BME280;3229;42.674;23.282;2023-03-22T04:40:10;94294.13;;;13.93;64.03
6393;BME280;3229;42.674;23.282;2023-03-22T04:42:41;94305.19;;;13.93;63.86
6393;BME280;3229;42.674;23.282;2023-03-22T04:45:09;94303.63;;;13.92;64.09
6393;BME280;3229;42.674;23.282;2023-03-22T04:47:36;94302.00;;;13.91;64.06
6393;BME280;3229;42.674;23.282;2023-03-22T04:50:06;94307.78;;;13.93;64.21
6393;BME280;3229;42.674;23.282;2023-03-22T04:52:33;94309.56;;;13.93;64.02
6393;BME280;3229;42.674;23.282;2023-03-22T04:55:00;94312.91;;;13.93;64.13
6393;BME280;3229;42.674;23.282;2023-03-22T04:57:27;94312.13;;;13.93;64.07
6393;BME280;3229;42.674;23.282;2023-03-22T04:59:53;94313.88;;;13.92;63.97
6393;BME280;3229;42.674;23.282;2023-03-22T05:02:20;94324.97;;;13.93;64.10
6393;BME280;3229;42.674;23.282;2023-03-22T05:04:47;94318.84;;;13.94;64.08
6393;BME280;3229;42.674;23.282;2023-03-22T05:07:15;94322.22;;;13.94;64.02
6393;BME280;3229;42.674;23.282;2023-03-22T05:09:42;94313.09;;;13.92;63.99
6393;BME280;3229;42.674;23.282;2023-03-22T05:12:09;94324.66;;;13.96;64.18
6393;BME280;3229;42.674;23.282;2023-03-22T05:14:35;94322.88;;;13.96;63.98
6393;BME280;3229;42.674;23.282;2023-03-22T05:17:02;94327.03;;;13.97;64.06
6393;BME280;3229;42.674;23.282;2023-03-22T05:19:29;94324.31;;;13.99;63.98
6393;BME280;3229;42.674;23.282;2023-03-22T05:21:57;94325.25;;;13.98;64.04
6393;BME280;3229;42.674;23.282;2023-03-22T05:24:27;94336.66;;;14.03;63.98
6393;BME280;3229;42.674;23.282;2023-03-22T05:26:54;94336.50;;;14.05;64.07
6393;BME280;3229;42.674;23.282;2023-03-22T05:29:25;94344.22;;;14.05;63.96
6393;BME280;3229;42.674;23.282;2023-03-22T05:31:52;94336.16;;;14.08;63.90
6393;BME280;3229;42.674;23.282;2023-03-22T05:34:19;94333.59;;;14.08;64.18
6393;BME280;3229;42.674;23.282;2023-03-22T05:36:46;94341.94;;;14.10;64.00
6393;BME280;3229;42.674;23.282;2023-03-22T05:39:15;94342.72;;;14.11;64.08
6393;BME280;3229;42.674;23.282;2023-03-22T05:41:44;94339.19;;;14.12;63.94
6393;BME280;3229;42.674;23.282;2023-03-22T05:44:11;94343.19;;;14.14;63.93
6393;BME280;3229;42.674;23.282;2023-03-22T05:46:37;94343.84;;;14.16;63.98
6393;BME280;3229;42.674;23.282;2023-03-22T05:49:04;94345.25;;;14.19;63.94
6393;BME280;3229;42.674;23.282;2023-03-22T05:51:31;94333.53;;;14.47;84.56
6393;BME280;3229;42.674;23.282;2023-03-22T05:53:58;94348.50;;;14.98;80.73
6393;BME280;3229;42.674;23.282;2023-03-22T05:56:25;94357.53;;;15.17;76.88
6393;BME280;3229;42.674;23.282;2023-03-22T05:58:53;94359.78;;;15.20;75.79
6393;BME280;3229;42.674;23.282;2023-03-22T06:01:20;94355.97;;;15.30;76.77
6393;BME280;3229;42.674;23.282;2023-03-22T06:03:47;94340.31;;;15.32;74.42
6393;BME280;3229;42.674;23.282;2023-03-22T06:06:14;94354.84;;;15.48;72.62
6393;BME280;3229;42.674;23.282;2023-03-22T06:08:42;94363.34;;;15.48;71.59
6393;BME280;3229;42.674;23.282;2023-03-22T06:11:09;94369.16;;;15.50;70.93
6393;BME280;3229;42.674;23.282;2023-03-22T06:13:37;94363.19;;;15.50;70.54
6393;BME280;3229;42.674;23.282;2023-03-22T06:16:05;94367.53;;;15.49;71.41
6393;BME280;3229;42.674;23.282;2023-03-22T06:18:32;94363.50;;;15.99;81.65
6393;BME280;3229;42.674;23.282;2023-03-22T06:20:59;94366.41;;;16.62;79.81
6393;BME280;3229;42.674;23.282;2023-03-22T06:23:26;94365.75;;;17.11;77.10
6393;BME280;3229;42.674;23.282;2023-03-22T06:25:53;94375.66;;;17.36;75.22
6393;BME280;3229;42.674;23.282;2023-03-22T06:28:20;94372.13;;;17.37;73.60
6393;BME280;3229;42.674;23.282;2023-03-22T06:30:47;94373.84;;;17.29;72.35
6393;BME280;3229;42.674;23.282;2023-03-22T06:33:15;94380.91;;;17.21;71.85
6393;BME280;3229;42.674;23.282;2023-03-22T06:35:42;94382.84;;;17.12;71.16
6393;BME280;3229;42.674;23.282;2023-03-22T06:38:09;94365.63;;;16.98;70.71
6393;BME280;3229;42.674;23.282;2023-03-22T06:40:36;94380.06;;;16.92;70.18
6393;BME280;3229;42.674;23.282;2023-03-22T06:43:03;94385.16;;;16.86;70.18
6393;BME280;3229;42.674;23.282;2023-03-22T06:45:30;94391.44;;;16.76;69.61
6393;BME280;3229;42.674;23.282;2023-03-22T06:47:58;94386.97;;;16.70;69.16
6393;BME280;3229;42.674;23.282;2023-03-22T06:50:27;94394.81;;;16.62;68.89
6393;BME280;3229;42.674;23.282;2023-03-22T06:52:54;94386.09;;;16.63;68.83
6393;BME280;3229;42.674;23.282;2023-03-22T06:55:22;94392.41;;;16.61;68.51
6393;BME280;3229;42.674;23.282;2023-03-22T06:57:49;94393.59;;;16.58;68.08
6393;BME280;3229;42.674;23.282;2023-03-22T07:00:16;94393.75;;;16.56;67.95
6393;BME280;3229;42.674;23.282;2023-03-22T07:02:43;94395.75;;;16.54;67.58
6393;BME280;3229;42.674;23.282;2023-03-22T07:05:10;94408.00;;;16.52;67.34
6393;BME280;3229;42.674;23.282;2023-03-22T07:07:38;94394.84;;;16.47;66.79
6393;BME280;3229;42.674;23.282;2023-03-22T07:10:06;94408.19;;;16.51;66.92
6393;BME280;3229;42.674;23.282;2023-03-22T07:12:33;94408.19;;;16.51;66.79
6393;BME280;3229;42.674;23.282;2023-03-22T07:15:00;94414.78;;;16.53;66.78
6393;BME280;3229;42.674;23.282;2023-03-22T07:17:27;94411.22;;;16.54;66.35
6393;BME280;3229;42.674;23.282;2023-03-22T07:19:54;94415.41;;;16.55;66.15
6393;BME280;3229;42.674;23.282;2023-03-22T07:22:21;94411.03;;;16.56;65.77
6393;BME280;3229;42.674;23.282;2023-03-22T07:24:50;94420.38;;;16.57;65.79
6393;BME280;3229;42.674;23.282;2023-03-22T07:27:18;94421.38;;;16.56;65.54
6393;BME280;3229;42.674;23.282;2023-03-22T07:29:45;94425.72;;;16.55;65.49
6393;BME280;3229;42.674;23.282;2023-03-22T07:32:12;94424.13;;;16.54;65.44
6393;BME280;3229;42.674;23.282;2023-03-22T07:34:39;94431.25;;;16.52;65.23
6393;BME280;3229;42.674;23.282;2023-03-22T07:37:06;94425.22;;;16.45;65.06
6393;BME280;3229;42.674;23.282;2023-03-22T07:39:33;94426.97;;;16.45;65.08
6393;BME280;3229;42.674;23.282;2023-03-22T07:42:01;94428.16;;;16.42;65.03
6393;BME280;3229;42.674;23.282;2023-03-22T07:44:28;94434.66;;;16.38;64.92
6393;BME280;3229;42.674;23.282;2023-03-22T07:46:55;94435.00;;;16.35;64.90
6393;BME280;3229;42.674;23.282;2023-03-22T07:49:22;94438.91;;;16.31;64.87
6393;BME280;3229;42.674;23.282;2023-03-22T07:51:49;94444.63;;;16.26;64.87
6393;BME280;3229;42.674;23.282;2023-03-22T07:54:15;94438.22;;;16.22;64.82
6393;BME280;3229;42.674;23.282;2023-03-22T07:56:42;94437.75;;;16.19;64.65
6393;BME280;3229;42.674;23.282;2023-03-22T07:59:13;94444.44;;;16.13;64.75
6393;BME280;3229;42.674;23.282;2023-03-22T08:01:42;94442.22;;;16.10;64.59
6393;BME280;3229;42.674;23.282;2023-03-22T08:04:10;94436.63;;;16.07;64.75
6393;BME280;3229;42.674;23.282;2023-03-22T08:06:37;94448.88;;;16.04;64.72
6393;BME280;3229;42.674;23.282;2023-03-22T08:09:05;94446.66;;;16.01;64.61
6393;BME280;3229;42.674;23.282;2023-03-22T08:11:33;94436.72;;;15.98;64.40
6393;BME280;3229;42.674;23.282;2023-03-22T08:14:00;94448.97;;;15.96;64.64
6393;BME280;3229;42.674;23.282;2023-03-22T08:16:28;94445.78;;;15.94;64.51
6393;BME280;3229;42.674;23.282;2023-03-22T08:18:55;94449.34;;;15.93;64.40
6393;BME280;3229;42.674;23.282;2023-03-22T08:21:22;94447.91;;;15.91;64.43
6393;BME280;3229;42.674;23.282;2023-03-22T08:23:48;94452.41;;;15.89;64.35
6393;BME280;3229;42.674;23.282;2023-03-22T08:26:15;94452.00;;;15.85;64.30
6393;BME280;3229;42.674;23.282;2023-03-22T08:28:43;94453.13;;;15.83;64.27
6393;BME280;3229;42.674;23.282;2023-03-22T08:31:11;94451.69;;;15.80;64.30
6393;BME280;3229;42.674;23.282;2023-03-22T08:33:39;94455.44;;;15.77;64.17
6393;BME280;3229;42.674;23.282;2023-03-22T08:36:08;94450.47;;;15.76;64.14
6393;BME280;3229;42.674;23.282;2023-03-22T08:38:36;94453.22;;;15.74;64.20
6393;BME280;3229;42.674;23.282;2023-03-22T08:41:03;94461.13;;;15.73;64.36
6393;BME280;3229;42.674;23.282;2023-03-22T08:43:30;94450.34;;;15.69;64.29
6393;BME280;3229;42.674;23.282;2023-03-22T08:45:57;94457.09;;;15.70;64.25
6393;BME280;3229;42.674;23.282;2023-03-22T08:48:24;94463.06;;;15.71;64.11
6393;BME280;3229;42.674;23.282;2023-03-22T08:50:54;94463.84;;;15.71;64.06
6393;BME280;3229;42.674;23.282;2023-03-22T08:53:21;94463.84;;;15.71;64.28
6393;BME280;3229;42.674;23.282;2023-03-22T08:55:48;94469.47;;;15.75;64.07
6393;BME280;3229;42.674;23.282;2023-03-22T08:58:15;94462.53;;;15.75;64.00
6393;BME280;3229;42.674;23.282;2023-03-22T09:00:44;94474.47;;;15.76;64.04
6393;BME280;3229;42.674;23.282;2023-03-22T09:03:11;94466.75;;;15.76;63.78
6393;BME280;3229;42.674;23.282;2023-03-22T09:05:38;94476.06;;;15.77;64.05
6393;BME280;3229;42.674;23.282;2023-03-22T09:08:06;94472.69;;;15.77;64.10
6393;BME280;3229;42.674;23.282;2023-03-22T09:10:33;94475.28;;;15.77;64.07
6393;BME280;3229;42.674;23.282;2023-03-22T09:13:03;94465.50;;;15.72;63.88
6393;BME280;3229;42.674;23.282;2023-03-22T09:15:30;94472.84;;;15.75;63.81
6393;BME280;3229;42.674;23.282;2023-03-22T09:17:57;94470.28;;;15.75;63.86
6393;BME280;3229;42.674;23.282;2023-03-22T09:20:24;94474.63;;;15.75;63.75
6393;BME280;3229;42.674;23.282;2023-03-22T09:22:51;94477.22;;;15.75;63.59
6393;BME280;3229;42.674;23.282;2023-03-22T09:25:19;94475.44;;;15.75;63.73
6393;BME280;3229;42.674;23.282;2023-03-22T09:27:46;94473.84;;;15.74;63.70
6393;BME280;3229;42.674;23.282;2023-03-22T09:30:13;94479.19;;;15.73;63.76
6393;BME280;3229;42.674;23.282;2023-03-22T09:32:40;94477.22;;;15.75;63.78
6393;BME280;3229;42.674;23.282;2023-03-22T09:35:07;94476.13;;;15.69;64.00
6393;BME280;3229;42.674;23.282;2023-03-22T09:37:34;94472.84;;;15.75;63.69
6393;BME280;3229;42.674;23.282;2023-03-22T09:40:01;94478.84;;;15.76;63.80
6393;BME280;3229;42.674;23.282;2023-03-22T09:42:36;94473.50;;;15.77;63.58
6393;BME280;3229;42.674;23.282;2023-03-22T09:45:06;94474.28;;;15.78;63.62
6393;BME280;3229;42.674;23.282;2023-03-22T09:47:39;94475.72;;;15.80;63.54
6393;BME280;3229;42.674;23.282;2023-03-22T09:50:12;94464.16;;;15.76;63.63
6393;BME280;3229;42.674;23.282;2023-03-22T09:52:39;94471.81;;;15.85;63.41
6393;BME280;3229;42.674;23.282;2023-03-22T09:55:16;94469.66;;;15.88;63.32
6393;BME280;3229;42.674;23.282;2023-03-22T09:57:53;94474.31;;;15.93;63.45
6393;BME280;3229;42.674;23.282;2023-03-22T10:00:32;94473.78;;;15.97;63.15
6393;BME280;3229;42.674;23.282;2023-03-22T10:03:10;94475.84;;;16.02;63.13
6393;BME280;3229;42.674;23.282;2023-03-22T10:05:45;94475.66;;;16.03;63.01
6393;BME280;3229;42.674;23.282;2023-03-22T10:08:35;94475.31;;;16.07;63.15
6393;BME280;3229;42.674;23.282;2023-03-22T10:11:12;94476.66;;;16.02;62.96
6393;BME280;3229;42.674;23.282;2023-03-22T10:13:52;94489.19;;;16.05;62.98
6393;BME280;3229;42.674;23.282;2023-03-22T10:16:26;94482.22;;;16.06;62.89
6393;BME280;3229;42.674;23.282;2023-03-22T10:18:58;94489.03;;;16.07;62.86
6393;BME280;3229;42.674;23.282;2023-03-22T10:21:26;94492.41;;;16.08;62.87
6393;BME280;3229;42.674;23.282;2023-03-22T10:23:55;94480.47;;;16.07;62.96
6393;BME280;3229;42.674;23.282;2023-03-22T10:26:26;94484.81;;;16.06;62.88
6393;BME280;3229;42.674;23.282;2023-03-22T10:28:59;94486.59;;;16.05;62.73
6393;BME280;3229;42.674;23.282;2023-03-22T10:31:28;94485.00;;;16.04;62.67
6393;BME280;3229;42.674;23.282;2023-03-22T10:33:57;94485.97;;;16.03;62.67
6393;BME280;3229;42.674;23.282;2023-03-22T10:36:27;94487.41;;;16.06;62.54
6393;BME280;3229;42.674;23.282;2023-03-22T10:39:02;94486.97;;;16.02;62.65
6393;BME280;3229;42.674;23.282;2023-03-22T10:41:32;94485.97;;;16.03;62.53
6393;BME280;3229;42.674;23.282;2023-03-22T10:44:02;94490.16;;;16.04;62.52
6393;BME280;3229;42.674;23.282;2023-03-22T10:46:32;94484.00;;;16.05;62.46
6393;BME280;3229;42.674;23.282;2023-03-22T10:49:03;94478.84;;;16.05;62.65
6393;BME280;3229;42.674;23.282;2023-03-22T10:51:35;94482.22;;;16.06;62.24
6393;BME280;3229;42.674;23.282;2023-03-22T10:54:11;94486.25;;;16.09;62.38
6393;BME280;3229;42.674;23.282;2023-03-22T10:56:38;94484.47;;;16.09;62.35
6393;BME280;3229;42.674;23.282;2023-03-22T10:59:07;94483.66;;;16.09;62.17
6393;BME280;3229;42.674;23.282;2023-03-22T11:01:43;94478.50;;;16.09;62.26
6393;BME280;3229;42.674;23.282;2023-03-22T11:04:12;94480.09;;;16.10;62.20
6393;BME280;3229;42.674;23.282;2023-03-22T11:06:48;94476.91;;;16.08;62.41
6393;BME280;3229;42.674;23.282;2023-03-22T11:09:16;94478.50;;;16.09;62.34
6393;BME280;3229;42.674;23.282;2023-03-22T11:11:47;94480.09;;;16.10;62.51
6393;BME280;3229;42.674;23.282;2023-03-22T11:14:19;94481.88;;;16.09;62.28
6393;BME280;3229;42.674;23.282;2023-03-22T11:16:52;94484.47;;;16.09;62.26
6393;BME280;3229;42.674;23.282;2023-03-22T11:19:23;94478.50;;;16.09;62.41
6393;BME280;3229;42.674;23.282;2023-03-22T11:21:53;94482.22;;;16.06;62.55
6393;BME280;3229;42.674;23.282;2023-03-22T11:24:23;94481.44;;;16.05;62.65
6393;BME280;3229;42.674;23.282;2023-03-22T11:27:02;94473.09;;;16.03;62.64
6393;BME280;3229;42.674;23.282;2023-03-22T11:29:38;94474.88;;;16.03;62.57
6393;BME280;3229;42.674;23.282;2023-03-22T11:32:20;94467.66;;;15.98;62.72
6393;BME280;3229;42.674;23.282;2023-03-22T11:34:58;94470.84;;;16.00;62.62
6393;BME280;3229;42.674;23.282;2023-03-22T11:37:25;94469.25;;;15.99;62.62
6393;BME280;3229;42.674;23.282;2023-03-22T11:39:58;94460.72;;;15.99;62.89
6393;BME280;3229;42.674;23.282;2023-03-22T11:42:26;94469.88;;;16.01;62.72
6393;BME280;3229;42.674;23.282;2023-03-22T11:44:55;94464.72;;;16.01;62.86
6393;BME280;3229;42.674;23.282;2023-03-22T11:47:24;94465.16;;;16.05;62.71
6393;BME280;3229;42.674;23.282;2023-03-22T11:49:52;94461.78;;;16.04;62.77
6393;BME280;3229;42.674;23.282;2023-03-22T11:52:24;94466.41;;;16.09;62.47
6393;BME280;3229;42.674;23.282;2023-03-22T11:54:54;94468.66;;;16.12;62.48
6393;BME280;3229;42.674;23.282;2023-03-22T11:57:23;94463.13;;;16.15;62.68
6393;BME280;3229;42.674;23.282;2023-03-22T11:59:56;94468.13;;;16.17;62.67
6393;BME280;3229;42.674;23.282;2023-03-22T12:02:27;94468.56;;;16.20;62.32
6393;BME280;3229;42.674;23.282;2023-03-22T12:04:59;94466.97;;;16.19;62.38
6393;BME280;3229;42.674;23.282;2023-03-22T12:07:29;94466.78;;;16.21;62.45
6393;BME280;3229;42.674;23.282;2023-03-22T12:10:02;94470.41;;;16.26;62.41
6393;BME280;3229;42.674;23.282;2023-03-22T12:12:33;94472.66;;;16.29;62.46
6393;BME280;3229;42.674;23.282;2023-03-22T12:15:10;94461.19;;;16.32;62.28
6393;BME280;3229;42.674;23.282;2023-03-22T12:17:42;94464.19;;;16.36;62.23
6393;BME280;3229;42.674;23.282;2023-03-22T12:20:16;94455.91;;;16.40;61.88
6393;BME280;3229;42.674;23.282;2023-03-22T12:22:48;94461.16;;;16.47;61.75
6393;BME280;3229;42.674;23.282;2023-03-22T12:25:19;94470.41;;;16.56;61.64
6393;BME280;3229;42.674;23.282;2023-03-22T12:27:49;94462.56;;;16.64;61.56
6393;BME280;3229;42.674;23.282;2023-03-22T12:30:22;94458.13;;;16.73;61.24
6393;BME280;3229;42.674;23.282;2023-03-22T12:32:51;94464.44;;;16.85;61.04
6393;BME280;3229;42.674;23.282;2023-03-22T12:35:25;94455.41;;;16.96;60.67
6393;BME280;3229;42.674;23.282;2023-03-22T12:37:55;94456.72;;;17.07;60.29
6393;BME280;3229;42.674;23.282;2023-03-22T12:40:25;94449.25;;;17.18;60.48
6393;BME280;3229;42.674;23.282;2023-03-22T12:43:05;94450.22;;;17.32;60.19
6393;BME280;3229;42.674;23.282;2023-03-22T12:45:38;94445.72;;;17.41;59.99
6393;BME280;3229;42.674;23.282;2023-03-22T12:48:12;94452.59;;;17.55;59.84
6393;BME280;3229;42.674;23.282;2023-03-22T12:50:44;94453.25;;;17.64;59.68
6393;BME280;3229;42.674;23.282;2023-03-22T12:53:15;94445.31;;;17.65;59.64
6393;BME280;3229;42.674;23.282;2023-03-22T12:55:43;94451.81;;;17.76;59.61
6393;BME280;3229;42.674;23.282;2023-03-22T12:58:15;94447.44;;;17.76;59.43
6393;BME280;3229;42.674;23.282;2023-03-22T13:00:47;94460.22;;;17.85;59.35
6393;BME280;3229;42.674;23.282;2023-03-22T13:03:22;94455.84;;;17.85;59.41
6393;BME280;3229;42.674;23.282;2023-03-22T13:05:59;94443.84;;;17.77;59.46
6393;BME280;3229;42.674;23.282;2023-03-22T13:09:12;94452.41;;;17.78;59.45
6393;BME280;3229;42.674;23.282;2023-03-22T13:11:40;94446.97;;;17.73;59.40
6393;BME280;3229;42.674;23.282;2023-03-22T13:14:11;94454.50;;;17.68;59.49
6393;BME280;3229;42.674;23.282;2023-03-22T13:16:52;94449.09;;;17.63;59.64
6393;BME280;3229;42.674;23.282;2023-03-22T13:19:27;94447.84;;;17.59;59.60
6393;BME280;3229;42.674;23.282;2023-03-22T13:22:29;94438.88;;;17.54;59.69
6393;BME280;3229;42.674;23.282;2023-03-22T13:25:30;94449.41;;;17.53;59.62
6393;BME280;3229;42.674;23.282;2023-03-22T13:28:01;94446.63;;;17.54;59.42
6393;BME280;3229;42.674;23.282;2023-03-22T13:30:31;94443.69;;;17.58;59.17